sensor_id;sensor_type;location;lat;lon;timestamp;P1;durP1;ratioP1;P2;durP2;ratioP2
71503;SDS011;59323;50.874;7.028;2023-07-28T00:00:58;4.55;;;1.15;;
71503;SDS011;59323;50.874;7.028;2023-07-28T00:03:24;3.30;;;1.13;;
71503;SDS011;59323;50.874;7.028;2023-07-28T00:05:49;2.93;;;1.00;;
71503;SDS011;59323;50.874;7.028;2023-07-28T00:08:14;2.30;;;0.90;;
71503;SDS011;59323;50.874;7.028;2023-07-28T00:10:41;2.80;;;1.10;;
71503;SDS011;59323;50.874;7.028;2023-07-28T00:13:07;3.90;;;1.30;;
71503;SDS011;59323;50.874;7.028;2023-07-28T00:15:32;3.77;;;1.27;;
71503;SDS011;59323;50.874;7.028;2023-07-28T00:17:58;3.73;;;1.50;;
71503;SDS011;59323;50.874;7.028;2023-07-28T00:20:24;6.75;;;1.30;;
71503;SDS011;59323;50.874;7.028;2023-07-28T00:22:50;3.20;;;1.17;;
71503;SDS011;59323;50.874;7.028;2023-07-28T00:25:15;3.60;;;1.07;;
71503;SDS011;59323;50.874;7.028;2023-07-28T00:27:41;2.70;;;1.20;;
71503;SDS011;59323;50.874;7.028;2023-07-28T00:30:06;3.77;;;1.30;;
71503;SDS011;59323;50.874;7.028;2023-07-28T00:32:32;2.50;;;0.90;;
71503;SDS011;59323;50.874;7.028;2023-07-28T00:34:57;3.27;;;1.33;;
71503;SDS011;59323;50.874;7.028;2023-07-28T00:37:22;4.93;;;1.33;;
71503;SDS011;59323;50.874;7.028;2023-07-28T00:39:48;4.23;;;1.10;;
71503;SDS011;59323;50.874;7.028;2023-07-28T00:42:13;2.50;;;0.90;;
71503;SDS011;59323;50.874;7.028;2023-07-28T00:44:38;2.93;;;0.90;;
71503;SDS011;59323;50.874;7.028;2023-07-28T00:47:04;4.50;;;1.00;;
71503;SDS011;59323;50.874;7.028;2023-07-28T00:49:29;2.80;;;1.23;;
71503;SDS011;59323;50.874;7.028;2023-07-28T00:51:55;2.72;;;0.82;;
71503;SDS011;59323;50.874;7.028;2023-07-28T00:54:21;3.40;;;1.20;;
71503;SDS011;59323;50.874;7.028;2023-07-28T00:56:46;2.77;;;0.70;;
71503;SDS011;59323;50.874;7.028;2023-07-28T00:59:12;3.87;;;1.00;;
71503;SDS011;59323;50.874;7.028;2023-07-28T01:01:38;8.50;;;1.90;;
71503;SDS011;59323;50.874;7.028;2023-07-28T01:04:03;4.80;;;1.20;;
71503;SDS011;59323;50.874;7.028;2023-07-28T01:06:37;2.90;;;1.02;;
71503;SDS011;59323;50.874;7.028;2023-07-28T01:09:13;4.97;;;1.60;;
71503;SDS011;59323;50.874;7.028;2023-07-28T01:11:53;3.70;;;1.40;;
71503;SDS011;59323;50.874;7.028;2023-07-28T01:14:19;4.00;;;1.10;;
71503;SDS011;59323;50.874;7.028;2023-07-28T01:16:44;4.60;;;1.37;;
71503;SDS011;59323;50.874;7.028;2023-07-28T01:19:09;3.80;;;1.10;;
71503;SDS011;59323;50.874;7.028;2023-07-28T01:21:37;3.50;;;1.10;;
71503;SDS011;59323;50.874;7.028;2023-07-28T01:26:49;3.35;;;1.40;;
71503;SDS011;59323;50.874;7.028;2023-07-28T01:29:16;3.97;;;0.95;;
71503;SDS011;59323;50.874;7.028;2023-07-28T01:31:45;2.97;;;1.15;;
71503;SDS011;59323;50.874;7.028;2023-07-28T01:34:12;3.67;;;1.23;;
71503;SDS011;59323;50.874;7.028;2023-07-28T01:36:37;4.07;;;1.10;;
71503;SDS011;59323;50.874;7.028;2023-07-28T01:39:03;3.83;;;1.30;;
71503;SDS011;59323;50.874;7.028;2023-07-28T01:41:28;4.00;;;1.27;;
71503;SDS011;59323;50.874;7.028;2023-07-28T01:43:53;3.63;;;1.40;;
71503;SDS011;59323;50.874;7.028;2023-07-28T01:46:20;3.80;;;1.23;;
71503;SDS011;59323;50.874;7.028;2023-07-28T01:48:46;4.90;;;1.10;;
71503;SDS011;59323;50.874;7.028;2023-07-28T01:51:11;2.80;;;0.90;;
71503;SDS011;59323;50.874;7.028;2023-07-28T01:53:36;3.00;;;0.93;;
71503;SDS011;59323;50.874;7.028;2023-07-28T01:56:02;2.53;;;1.00;;
71503;SDS011;59323;50.874;7.028;2023-07-28T01:58:27;2.60;;;0.90;;
71503;SDS011;59323;50.874;7.028;2023-07-28T02:00:53;2.40;;;0.90;;
71503;SDS011;59323;50.874;7.028;2023-07-28T02:03:18;3.00;;;0.97;;
71503;SDS011;59323;50.874;7.028;2023-07-28T02:05:43;2.80;;;1.13;;
71503;SDS011;59323;50.874;7.028;2023-07-28T02:08:09;1.75;;;0.73;;
71503;SDS011;59323;50.874;7.028;2023-07-28T02:10:35;1.80;;;0.60;;
71503;SDS011;59323;50.874;7.028;2023-07-28T02:13:00;2.15;;;0.70;;
71503;SDS011;59323;50.874;7.028;2023-07-28T02:15:25;1.80;;;0.50;;
71503;SDS011;59323;50.874;7.028;2023-07-28T02:17:51;1.60;;;0.73;;
71503;SDS011;59323;50.874;7.028;2023-07-28T02:20:16;2.17;;;0.63;;
71503;SDS011;59323;50.874;7.028;2023-07-28T02:22:42;1.83;;;0.52;;
71503;SDS011;59323;50.874;7.028;2023-07-28T02:25:08;1.50;;;0.80;;
71503;SDS011;59323;50.874;7.028;2023-07-28T02:27:34;2.00;;;0.60;;
71503;SDS011;59323;50.874;7.028;2023-07-28T02:29:59;1.37;;;0.80;;
71503;SDS011;59323;50.874;7.028;2023-07-28T02:32:25;1.73;;;0.70;;
71503;SDS011;59323;50.874;7.028;2023-07-28T02:34:51;1.67;;;0.70;;
71503;SDS011;59323;50.874;7.028;2023-07-28T02:37:16;1.57;;;0.57;;
71503;SDS011;59323;50.874;7.028;2023-07-28T02:39:42;3.67;;;0.97;;
71503;SDS011;59323;50.874;7.028;2023-07-28T02:42:07;2.10;;;0.65;;
71503;SDS011;59323;50.874;7.028;2023-07-28T02:44:33;0.67;;;0.43;;
71503;SDS011;59323;50.874;7.028;2023-07-28T02:46:58;0.70;;;0.33;;
71503;SDS011;59323;50.874;7.028;2023-07-28T02:49:23;1.60;;;0.57;;
71503;SDS011;59323;50.874;7.028;2023-07-28T02:51:49;2.90;;;0.73;;
71503;SDS011;59323;50.874;7.028;2023-07-28T02:54:14;2.33;;;0.40;;
71503;SDS011;59323;50.874;7.028;2023-07-28T02:56:39;2.55;;;0.40;;
71503;SDS011;59323;50.874;7.028;2023-07-28T02:59:05;1.77;;;0.70;;
71503;SDS011;59323;50.874;7.028;2023-07-28T03:01:30;1.27;;;0.57;;
71503;SDS011;59323;50.874;7.028;2023-07-28T03:03:58;2.42;;;0.70;;
71503;SDS011;59323;50.874;7.028;2023-07-28T03:06:27;1.20;;;0.57;;
71503;SDS011;59323;50.874;7.028;2023-07-28T03:08:53;1.23;;;0.63;;
71503;SDS011;59323;50.874;7.028;2023-07-28T03:11:18;2.08;;;0.50;;
71503;SDS011;59323;50.874;7.028;2023-07-28T03:13:43;1.37;;;0.50;;
71503;SDS011;59323;50.874;7.028;2023-07-28T03:16:09;3.40;;;0.80;;
71503;SDS011;59323;50.874;7.028;2023-07-28T03:18:34;4.10;;;0.60;;
71503;SDS011;59323;50.874;7.028;2023-07-28T03:21:00;1.17;;;0.50;;
71503;SDS011;59323;50.874;7.028;2023-07-28T03:23:25;0.93;;;0.57;;
71503;SDS011;59323;50.874;7.028;2023-07-28T03:25:51;1.60;;;0.60;;
71503;SDS011;59323;50.874;7.028;2023-07-28T03:28:17;1.48;;;0.45;;
71503;SDS011;59323;50.874;7.028;2023-07-28T03:30:42;0.83;;;0.50;;
71503;SDS011;59323;50.874;7.028;2023-07-28T03:33:07;1.53;;;0.50;;
71503;SDS011;59323;50.874;7.028;2023-07-28T03:35:33;1.67;;;0.50;;
71503;SDS011;59323;50.874;7.028;2023-07-28T03:37:58;1.75;;;0.50;;
71503;SDS011;59323;50.874;7.028;2023-07-28T03:40:23;1.60;;;0.33;;
71503;SDS011;59323;50.874;7.028;2023-07-28T03:42:49;1.87;;;0.60;;
71503;SDS011;59323;50.874;7.028;2023-07-28T03:45:14;1.90;;;0.50;;
71503;SDS011;59323;50.874;7.028;2023-07-28T03:47:40;0.82;;;0.45;;
71503;SDS011;59323;50.874;7.028;2023-07-28T03:50:05;1.13;;;0.40;;
71503;SDS011;59323;50.874;7.028;2023-07-28T03:52:31;1.10;;;0.67;;
71503;SDS011;59323;50.874;7.028;2023-07-28T03:54:56;0.90;;;0.67;;
71503;SDS011;59323;50.874;7.028;2023-07-28T03:57:21;2.23;;;0.73;;
71503;SDS011;59323;50.874;7.028;2023-07-28T03:59:47;1.00;;;0.60;;
71503;SDS011;59323;50.874;7.028;2023-07-28T04:02:12;1.90;;;0.70;;
71503;SDS011;59323;50.874;7.028;2023-07-28T04:04:37;1.20;;;0.80;;
71503;SDS011;59323;50.874;7.028;2023-07-28T04:07:03;1.13;;;0.70;;
71503;SDS011;59323;50.874;7.028;2023-07-28T04:09:29;0.80;;;0.43;;
71503;SDS011;59323;50.874;7.028;2023-07-28T04:11:54;1.07;;;0.60;;
71503;SDS011;59323;50.874;7.028;2023-07-28T04:14:19;3.83;;;0.50;;
71503;SDS011;59323;50.874;7.028;2023-07-28T04:16:45;2.67;;;0.60;;
71503;SDS011;59323;50.874;7.028;2023-07-28T04:19:10;2.03;;;0.80;;
71503;SDS011;59323;50.874;7.028;2023-07-28T04:21:35;2.67;;;0.80;;
71503;SDS011;59323;50.874;7.028;2023-07-28T04:24:04;2.60;;;0.68;;
71503;SDS011;59323;50.874;7.028;2023-07-28T04:26:31;2.63;;;0.80;;
71503;SDS011;59323;50.874;7.028;2023-07-28T04:28:57;2.20;;;0.67;;
71503;SDS011;59323;50.874;7.028;2023-07-28T04:31:25;1.58;;;0.68;;
71503;SDS011;59323;50.874;7.028;2023-07-28T04:33:51;2.92;;;0.98;;
71503;SDS011;59323;50.874;7.028;2023-07-28T04:36:16;2.43;;;0.77;;
71503;SDS011;59323;50.874;7.028;2023-07-28T04:38:41;2.60;;;0.80;;
71503;SDS011;59323;50.874;7.028;2023-07-28T04:41:07;2.40;;;0.50;;
71503;SDS011;59323;50.874;7.028;2023-07-28T04:43:32;1.97;;;0.70;;
71503;SDS011;59323;50.874;7.028;2023-07-28T04:45:57;1.83;;;0.40;;
71503;SDS011;59323;50.874;7.028;2023-07-28T04:48:23;2.30;;;0.50;;
71503;SDS011;59323;50.874;7.028;2023-07-28T04:50:48;1.40;;;0.43;;
71503;SDS011;59323;50.874;7.028;2023-07-28T04:53:14;2.10;;;0.70;;
71503;SDS011;59323;50.874;7.028;2023-07-28T04:55:39;3.65;;;0.43;;
71503;SDS011;59323;50.874;7.028;2023-07-28T04:58:05;1.17;;;0.47;;
71503;SDS011;59323;50.874;7.028;2023-07-28T05:00:30;1.67;;;0.50;;
71503;SDS011;59323;50.874;7.028;2023-07-28T05:02:55;2.45;;;0.63;;
71503;SDS011;59323;50.874;7.028;2023-07-28T05:05:20;2.10;;;0.50;;
71503;SDS011;59323;50.874;7.028;2023-07-28T05:07:46;1.80;;;0.60;;
71503;SDS011;59323;50.874;7.028;2023-07-28T05:10:11;2.27;;;0.60;;
71503;SDS011;59323;50.874;7.028;2023-07-28T05:12:37;2.85;;;0.65;;
71503;SDS011;59323;50.874;7.028;2023-07-28T05:15:04;2.00;;;0.77;;
71503;SDS011;59323;50.874;7.028;2023-07-28T05:17:30;1.10;;;0.68;;
71503;SDS011;59323;50.874;7.028;2023-07-28T05:19:55;2.13;;;0.80;;
71503;SDS011;59323;50.874;7.028;2023-07-28T05:22:26;2.57;;;0.87;;
71503;SDS011;59323;50.874;7.028;2023-07-28T05:31:23;3.33;;;0.70;;
71503;SDS011;59323;50.874;7.028;2023-07-28T05:34:05;1.17;;;0.55;;
71503;SDS011;59323;50.874;7.028;2023-07-28T05:36:33;1.73;;;0.70;;
71503;SDS011;59323;50.874;7.028;2023-07-28T05:45:37;2.88;;;0.90;;
71503;SDS011;59323;50.874;7.028;2023-07-28T05:52:32;2.00;;;0.70;;
71503;SDS011;59323;50.874;7.028;2023-07-28T05:55:21;1.92;;;0.60;;
71503;SDS011;59323;50.874;7.028;2023-07-28T06:01:07;2.03;;;0.70;;
71503;SDS011;59323;50.874;7.028;2023-07-28T06:03:48;2.75;;;0.90;;
71503;SDS011;59323;50.874;7.028;2023-07-28T06:13:10;6.80;;;1.10;;
71503;SDS011;59323;50.874;7.028;2023-07-28T06:15:43;2.53;;;0.90;;
71503;SDS011;59323;50.874;7.028;2023-07-28T06:18:11;3.92;;;0.98;;
71503;SDS011;59323;50.874;7.028;2023-07-28T06:20:52;1.73;;;0.80;;
71503;SDS011;59323;50.874;7.028;2023-07-28T06:36:05;2.67;;;1.15;;
71503;SDS011;59323;50.874;7.028;2023-07-28T06:38:33;2.85;;;1.10;;
71503;SDS011;59323;50.874;7.028;2023-07-28T06:40:58;3.63;;;1.10;;
71503;SDS011;59323;50.874;7.028;2023-07-28T06:43:25;1.73;;;0.73;;
71503;SDS011;59323;50.874;7.028;2023-07-28T06:45:54;3.85;;;1.30;;
71503;SDS011;59323;50.874;7.028;2023-07-28T06:48:20;5.70;;;1.40;;
71503;SDS011;59323;50.874;7.028;2023-07-28T06:50:45;2.53;;;1.30;;
71503;SDS011;59323;50.874;7.028;2023-07-28T06:53:11;4.63;;;1.40;;
71503;SDS011;59323;50.874;7.028;2023-07-28T06:55:36;2.47;;;1.20;;
71503;SDS011;59323;50.874;7.028;2023-07-28T06:58:07;4.07;;;1.08;;
71503;SDS011;59323;50.874;7.028;2023-07-28T07:00:33;1.77;;;0.80;;
71503;SDS011;59323;50.874;7.028;2023-07-28T07:02:58;2.83;;;0.90;;
71503;SDS011;59323;50.874;7.028;2023-07-28T07:05:24;3.27;;;0.77;;
71503;SDS011;59323;50.874;7.028;2023-07-28T07:07:49;2.30;;;0.70;;
71503;SDS011;59323;50.874;7.028;2023-07-28T07:10:26;2.13;;;0.90;;
71503;SDS011;59323;50.874;7.028;2023-07-28T07:16:30;2.25;;;0.70;;
71503;SDS011;59323;50.874;7.028;2023-07-28T07:26:08;1.87;;;0.87;;
71503;SDS011;59323;50.874;7.028;2023-07-28T07:33:01;1.85;;;0.60;;
71503;SDS011;59323;50.874;7.028;2023-07-28T07:35:27;3.60;;;0.70;;
71503;SDS011;59323;50.874;7.028;2023-07-28T07:37:52;2.17;;;0.70;;
71503;SDS011;59323;50.874;7.028;2023-07-28T07:40:17;1.87;;;1.00;;
71503;SDS011;59323;50.874;7.028;2023-07-28T07:42:48;3.28;;;0.73;;
71503;SDS011;59323;50.874;7.028;2023-07-28T07:46:00;1.73;;;0.77;;
71503;SDS011;59323;50.874;7.028;2023-07-28T07:48:26;2.15;;;1.08;;
71503;SDS011;59323;50.874;7.028;2023-07-28T07:50:58;3.97;;;1.05;;
71503;SDS011;59323;50.874;7.028;2023-07-28T07:53:43;1.88;;;0.70;;
71503;SDS011;59323;50.874;7.028;2023-07-28T07:56:15;3.75;;;1.10;;
71503;SDS011;59323;50.874;7.028;2023-07-28T07:58:42;2.90;;;0.90;;
71503;SDS011;59323;50.874;7.028;2023-07-28T08:01:15;2.45;;;1.10;;
71503;SDS011;59323;50.874;7.028;2023-07-28T08:04:05;4.03;;;1.10;;
71503;SDS011;59323;50.874;7.028;2023-07-28T08:06:31;3.63;;;0.90;;
71503;SDS011;59323;50.874;7.028;2023-07-28T08:08:56;3.90;;;1.57;;
71503;SDS011;59323;50.874;7.028;2023-07-28T08:11:24;5.72;;;1.70;;
71503;SDS011;59323;50.874;7.028;2023-07-28T08:13:52;3.67;;;1.37;;
71503;SDS011;59323;50.874;7.028;2023-07-28T08:16:57;5.30;;;1.83;;
71503;SDS011;59323;50.874;7.028;2023-07-28T08:19:25;6.97;;;2.65;;
71503;SDS011;59323;50.874;7.028;2023-07-28T08:21:51;6.03;;;2.30;;
71503;SDS011;59323;50.874;7.028;2023-07-28T08:24:24;3.67;;;1.92;;
71503;SDS011;59323;50.874;7.028;2023-07-28T08:26:49;3.80;;;1.43;;
71503;SDS011;59323;50.874;7.028;2023-07-28T08:29:15;4.33;;;1.43;;
71503;SDS011;59323;50.874;7.028;2023-07-28T08:31:40;5.77;;;1.50;;
71503;SDS011;59323;50.874;7.028;2023-07-28T08:34:06;4.60;;;1.45;;
71503;SDS011;59323;50.874;7.028;2023-07-28T08:36:33;3.43;;;1.60;;
71503;SDS011;59323;50.874;7.028;2023-07-28T08:38:58;2.25;;;1.10;;
71503;SDS011;59323;50.874;7.028;2023-07-28T08:41:23;3.27;;;1.10;;
71503;SDS011;59323;50.874;7.028;2023-07-28T08:43:50;2.65;;;1.60;;
71503;SDS011;59323;50.874;7.028;2023-07-28T08:46:17;2.05;;;1.00;;
71503;SDS011;59323;50.874;7.028;2023-07-28T08:48:43;2.43;;;1.30;;
71503;SDS011;59323;50.874;7.028;2023-07-28T08:51:09;6.38;;;1.20;;
71503;SDS011;59323;50.874;7.028;2023-07-28T08:53:35;2.00;;;0.70;;
71503;SDS011;59323;50.874;7.028;2023-07-28T08:56:00;1.60;;;1.00;;
71503;SDS011;59323;50.874;7.028;2023-07-28T08:58:25;1.63;;;1.07;;
71503;SDS011;59323;50.874;7.028;2023-07-28T09:00:51;1.77;;;0.90;;
71503;SDS011;59323;50.874;7.028;2023-07-28T09:03:18;2.25;;;1.00;;
71503;SDS011;59323;50.874;7.028;2023-07-28T09:05:44;2.95;;;1.45;;
71503;SDS011;59323;50.874;7.028;2023-07-28T09:08:13;2.73;;;1.43;;
71503;SDS011;59323;50.874;7.028;2023-07-28T09:10:40;2.78;;;1.13;;
71503;SDS011;59323;50.874;7.028;2023-07-28T09:13:09;3.13;;;1.30;;
71503;SDS011;59323;50.874;7.028;2023-07-28T09:15:39;3.45;;;1.10;;
71503;SDS011;59323;50.874;7.028;2023-07-28T09:18:11;2.30;;;1.38;;
71503;SDS011;59323;50.874;7.028;2023-07-28T09:20:37;3.67;;;1.17;;
71503;SDS011;59323;50.874;7.028;2023-07-28T09:23:06;5.38;;;1.52;;
71503;SDS011;59323;50.874;7.028;2023-07-28T09:25:33;3.67;;;1.83;;
71503;SDS011;59323;50.874;7.028;2023-07-28T09:27:59;3.33;;;1.58;;
71503;SDS011;59323;50.874;7.028;2023-07-28T09:30:25;4.15;;;1.60;;
71503;SDS011;59323;50.874;7.028;2023-07-28T09:32:53;2.70;;;1.40;;
71503;SDS011;59323;50.874;7.028;2023-07-28T09:35:20;2.47;;;1.25;;
71503;SDS011;59323;50.874;7.028;2023-07-28T09:37:47;4.03;;;1.08;;
71503;SDS011;59323;50.874;7.028;2023-07-28T09:40:16;2.75;;;0.90;;
71503;SDS011;59323;50.874;7.028;2023-07-28T09:42:44;3.90;;;1.20;;
71503;SDS011;59323;50.874;7.028;2023-07-28T09:45:14;2.63;;;1.00;;
71503;SDS011;59323;50.874;7.028;2023-07-28T09:47:42;1.75;;;0.93;;
71503;SDS011;59323;50.874;7.028;2023-07-28T09:50:10;2.80;;;1.10;;
71503;SDS011;59323;50.874;7.028;2023-07-28T09:52:39;2.42;;;1.00;;
71503;SDS011;59323;50.874;7.028;2023-07-28T09:55:08;1.75;;;0.80;;
71503;SDS011;59323;50.874;7.028;2023-07-28T09:57:43;1.67;;;0.60;;
71503;SDS011;59323;50.874;7.028;2023-07-28T10:00:11;1.73;;;0.80;;
71503;SDS011;59323;50.874;7.028;2023-07-28T10:02:38;1.77;;;1.00;;
71503;SDS011;59323;50.874;7.028;2023-07-28T10:05:07;1.05;;;0.63;;
71503;SDS011;59323;50.874;7.028;2023-07-28T10:07:37;1.25;;;0.73;;
71503;SDS011;59323;50.874;7.028;2023-07-28T10:10:05;1.80;;;0.70;;
71503;SDS011;59323;50.874;7.028;2023-07-28T10:12:49;1.50;;;0.80;;
71503;SDS011;59323;50.874;7.028;2023-07-28T10:15:16;1.48;;;0.85;;
71503;SDS011;59323;50.874;7.028;2023-07-28T10:17:49;2.17;;;0.98;;
71503;SDS011;59323;50.874;7.028;2023-07-28T10:20:34;3.97;;;1.10;;
71503;SDS011;59323;50.874;7.028;2023-07-28T10:23:17;2.50;;;1.10;;
71503;SDS011;59323;50.874;7.028;2023-07-28T10:25:47;2.33;;;1.30;;
71503;SDS011;59323;50.874;7.028;2023-07-28T10:28:25;1.55;;;1.05;;
71503;SDS011;59323;50.874;7.028;2023-07-28T10:31:06;1.60;;;0.90;;
71503;SDS011;59323;50.874;7.028;2023-07-28T10:33:33;1.70;;;0.80;;
71503;SDS011;59323;50.874;7.028;2023-07-28T10:39:23;1.77;;;1.17;;
71503;SDS011;59323;50.874;7.028;2023-07-28T10:41:59;1.60;;;1.10;;
71503;SDS011;59323;50.874;7.028;2023-07-28T10:44:25;2.50;;;1.05;;
71503;SDS011;59323;50.874;7.028;2023-07-28T10:46:50;3.13;;;1.60;;
71503;SDS011;59323;50.874;7.028;2023-07-28T10:49:16;3.05;;;1.20;;
71503;SDS011;59323;50.874;7.028;2023-07-28T10:51:42;4.23;;;1.57;;
71503;SDS011;59323;50.874;7.028;2023-07-28T10:54:07;2.80;;;1.20;;
71503;SDS011;59323;50.874;7.028;2023-07-28T10:56:32;1.93;;;1.20;;
71503;SDS011;59323;50.874;7.028;2023-07-28T10:58:58;2.60;;;1.20;;
71503;SDS011;59323;50.874;7.028;2023-07-28T11:01:32;1.70;;;1.13;;
71503;SDS011;59323;50.874;7.028;2023-07-28T11:04:19;2.28;;;1.50;;
71503;SDS011;59323;50.874;7.028;2023-07-28T11:06:47;2.08;;;1.00;;
71503;SDS011;59323;50.874;7.028;2023-07-28T11:09:15;3.70;;;1.55;;
71503;SDS011;59323;50.874;7.028;2023-07-28T11:11:42;3.08;;;1.38;;
71503;SDS011;59323;50.874;7.028;2023-07-28T11:14:08;2.60;;;1.20;;
71503;SDS011;59323;50.874;7.028;2023-07-28T11:16:40;2.13;;;1.40;;
71503;SDS011;59323;50.874;7.028;2023-07-28T11:19:27;2.38;;;1.33;;
71503;SDS011;59323;50.874;7.028;2023-07-28T11:21:54;3.10;;;1.20;;
71503;SDS011;59323;50.874;7.028;2023-07-28T11:24:26;1.88;;;1.30;;
71503;SDS011;59323;50.874;7.028;2023-07-28T11:26:54;1.38;;;0.98;;
71503;SDS011;59323;50.874;7.028;2023-07-28T11:29:19;2.60;;;1.43;;
71503;SDS011;59323;50.874;7.028;2023-07-28T11:31:46;3.05;;;1.50;;
71503;SDS011;59323;50.874;7.028;2023-07-28T11:34:13;1.70;;;0.70;;
71503;SDS011;59323;50.874;7.028;2023-07-28T11:36:42;1.33;;;0.88;;
71503;SDS011;59323;50.874;7.028;2023-07-28T11:39:07;1.17;;;0.70;;
71503;SDS011;59323;50.874;7.028;2023-07-28T11:41:39;1.50;;;1.00;;
71503;SDS011;59323;50.874;7.028;2023-07-28T11:47:22;1.83;;;1.00;;
71503;SDS011;59323;50.874;7.028;2023-07-28T12:03:54;2.05;;;1.30;;
71503;SDS011;59323;50.874;7.028;2023-07-28T12:06:20;1.70;;;1.15;;
71503;SDS011;59323;50.874;7.028;2023-07-28T12:08:45;1.80;;;0.83;;
71503;SDS011;59323;50.874;7.028;2023-07-28T12:11:14;2.87;;;1.50;;
71503;SDS011;59323;50.874;7.028;2023-07-28T12:13:47;1.25;;;0.80;;
71503;SDS011;59323;50.874;7.028;2023-07-28T12:19:18;2.13;;;1.27;;
71503;SDS011;59323;50.874;7.028;2023-07-28T12:21:44;2.25;;;1.25;;
71503;SDS011;59323;50.874;7.028;2023-07-28T12:24:09;2.90;;;1.13;;
71503;SDS011;59323;50.874;7.028;2023-07-28T12:26:34;2.27;;;1.37;;
71503;SDS011;59323;50.874;7.028;2023-07-28T12:29:00;2.93;;;1.27;;
71503;SDS011;59323;50.874;7.028;2023-07-28T12:31:25;2.77;;;1.63;;
71503;SDS011;59323;50.874;7.028;2023-07-28T12:33:51;2.83;;;1.40;;
71503;SDS011;59323;50.874;7.028;2023-07-28T12:36:16;1.77;;;1.10;;
71503;SDS011;59323;50.874;7.028;2023-07-28T12:38:42;2.20;;;1.40;;
71503;SDS011;59323;50.874;7.028;2023-07-28T12:41:07;2.47;;;1.30;;
71503;SDS011;59323;50.874;7.028;2023-07-28T12:43:33;2.50;;;1.13;;
71503;SDS011;59323;50.874;7.028;2023-07-28T12:45:59;1.37;;;0.80;;
71503;SDS011;59323;50.874;7.028;2023-07-28T12:48:25;2.38;;;1.77;;
71503;SDS011;59323;50.874;7.028;2023-07-28T12:50:50;1.83;;;1.30;;
71503;SDS011;59323;50.874;7.028;2023-07-28T12:53:16;2.17;;;1.20;;
71503;SDS011;59323;50.874;7.028;2023-07-28T12:55:41;1.90;;;1.27;;
71503;SDS011;59323;50.874;7.028;2023-07-28T12:58:07;1.30;;;0.87;;
71503;SDS011;59323;50.874;7.028;2023-07-28T13:00:32;1.93;;;1.07;;
71503;SDS011;59323;50.874;7.028;2023-07-28T13:02:57;2.40;;;1.23;;
71503;SDS011;59323;50.874;7.028;2023-07-28T13:05:24;2.15;;;1.05;;
71503;SDS011;59323;50.874;7.028;2023-07-28T13:07:49;3.87;;;1.43;;
71503;SDS011;59323;50.874;7.028;2023-07-28T13:10:15;3.08;;;1.33;;
71503;SDS011;59323;50.874;7.028;2023-07-28T13:12:40;2.23;;;1.20;;
71503;SDS011;59323;50.874;7.028;2023-07-28T13:15:05;3.53;;;1.00;;
71503;SDS011;59323;50.874;7.028;2023-07-28T13:17:31;3.25;;;1.05;;
71503;SDS011;59323;50.874;7.028;2023-07-28T13:19:57;3.03;;;1.20;;
71503;SDS011;59323;50.874;7.028;2023-07-28T13:22:23;2.90;;;1.20;;
71503;SDS011;59323;50.874;7.028;2023-07-28T13:24:51;3.65;;;1.25;;
71503;SDS011;59323;50.874;7.028;2023-07-28T13:27:16;3.07;;;1.13;;
71503;SDS011;59323;50.874;7.028;2023-07-28T13:29:42;1.75;;;1.00;;
71503;SDS011;59323;50.874;7.028;2023-07-28T13:32:17;1.97;;;0.90;;
71503;SDS011;59323;50.874;7.028;2023-07-28T13:34:47;2.80;;;1.07;;
71503;SDS011;59323;50.874;7.028;2023-07-28T13:37:12;2.25;;;1.08;;
71503;SDS011;59323;50.874;7.028;2023-07-28T13:39:38;2.40;;;1.43;;
71503;SDS011;59323;50.874;7.028;2023-07-28T13:42:03;1.60;;;0.97;;
71503;SDS011;59323;50.874;7.028;2023-07-28T13:44:28;2.23;;;1.20;;
71503;SDS011;59323;50.874;7.028;2023-07-28T13:46:54;3.00;;;0.90;;
71503;SDS011;59323;50.874;7.028;2023-07-28T13:49:19;11.13;;;1.53;;
71503;SDS011;59323;50.874;7.028;2023-07-28T13:51:44;1.93;;;1.03;;
71503;SDS011;59323;50.874;7.028;2023-07-28T13:54:10;3.13;;;1.50;;
71503;SDS011;59323;50.874;7.028;2023-07-28T13:56:36;3.88;;;1.00;;
71503;SDS011;59323;50.874;7.028;2023-07-28T13:59:02;4.13;;;1.33;;
71503;SDS011;59323;50.874;7.028;2023-07-28T14:01:27;2.87;;;1.37;;
71503;SDS011;59323;50.874;7.028;2023-07-28T14:03:52;2.08;;;1.10;;
71503;SDS011;59323;50.874;7.028;2023-07-28T14:06:18;3.13;;;1.13;;
71503;SDS011;59323;50.874;7.028;2023-07-28T14:08:44;2.50;;;1.00;;
71503;SDS011;59323;50.874;7.028;2023-07-28T14:11:10;1.73;;;1.00;;
71503;SDS011;59323;50.874;7.028;2023-07-28T14:13:35;2.78;;;0.90;;
71503;SDS011;59323;50.874;7.028;2023-07-28T14:16:00;2.80;;;0.83;;
71503;SDS011;59323;50.874;7.028;2023-07-28T14:18:26;1.93;;;1.10;;
71503;SDS011;59323;50.874;7.028;2023-07-28T14:20:51;2.50;;;1.03;;
71503;SDS011;59323;50.874;7.028;2023-07-28T14:23:21;2.90;;;1.10;;
71503;SDS011;59323;50.874;7.028;2023-07-28T14:25:51;1.50;;;0.90;;
71503;SDS011;59323;50.874;7.028;2023-07-28T14:28:17;2.03;;;1.00;;
71503;SDS011;59323;50.874;7.028;2023-07-28T14:30:43;2.13;;;1.10;;
71503;SDS011;59323;50.874;7.028;2023-07-28T14:33:14;1.88;;;1.20;;
71503;SDS011;59323;50.874;7.028;2023-07-28T14:35:41;1.43;;;0.70;;
71503;SDS011;59323;50.874;7.028;2023-07-28T14:38:08;2.70;;;1.08;;
71503;SDS011;59323;50.874;7.028;2023-07-28T14:40:35;2.23;;;0.97;;
71503;SDS011;59323;50.874;7.028;2023-07-28T14:43:01;2.27;;;1.10;;
71503;SDS011;59323;50.874;7.028;2023-07-28T14:45:27;3.15;;;1.10;;
71503;SDS011;59323;50.874;7.028;2023-07-28T14:47:52;1.87;;;1.30;;
71503;SDS011;59323;50.874;7.028;2023-07-28T14:50:18;2.37;;;0.97;;
71503;SDS011;59323;50.874;7.028;2023-07-28T14:52:43;1.60;;;1.10;;
71503;SDS011;59323;50.874;7.028;2023-07-28T14:55:08;2.45;;;0.57;;
71503;SDS011;59323;50.874;7.028;2023-07-28T14:57:34;1.53;;;0.70;;
71503;SDS011;59323;50.874;7.028;2023-07-28T14:59:59;1.63;;;1.00;;
71503;SDS011;59323;50.874;7.028;2023-07-28T15:02:25;2.58;;;1.30;;
71503;SDS011;59323;50.874;7.028;2023-07-28T15:04:50;1.07;;;0.67;;
71503;SDS011;59323;50.874;7.028;2023-07-28T15:07:17;1.00;;;0.70;;
71503;SDS011;59323;50.874;7.028;2023-07-28T15:09:44;1.45;;;0.80;;
71503;SDS011;59323;50.874;7.028;2023-07-28T15:12:09;2.27;;;1.17;;
71503;SDS011;59323;50.874;7.028;2023-07-28T15:14:34;2.97;;;1.03;;
71503;SDS011;59323;50.874;7.028;2023-07-28T15:17:00;1.40;;;0.90;;
71503;SDS011;59323;50.874;7.028;2023-07-28T15:19:25;1.63;;;0.73;;
71503;SDS011;59323;50.874;7.028;2023-07-28T15:21:50;2.27;;;1.07;;
71503;SDS011;59323;50.874;7.028;2023-07-28T15:24:16;1.80;;;0.90;;
71503;SDS011;59323;50.874;7.028;2023-07-28T15:26:44;1.00;;;0.80;;
71503;SDS011;59323;50.874;7.028;2023-07-28T15:29:12;3.78;;;0.95;;
71503;SDS011;59323;50.874;7.028;2023-07-28T15:31:38;1.30;;;0.77;;
71503;SDS011;59323;50.874;7.028;2023-07-28T15:34:03;0.90;;;0.60;;
71503;SDS011;59323;50.874;7.028;2023-07-28T15:36:28;1.30;;;0.80;;
71503;SDS011;59323;50.874;7.028;2023-07-28T15:38:54;2.93;;;0.83;;
71503;SDS011;59323;50.874;7.028;2023-07-28T15:41:19;3.40;;;1.23;;
71503;SDS011;59323;50.874;7.028;2023-07-28T15:43:44;1.53;;;0.80;;
71503;SDS011;59323;50.874;7.028;2023-07-28T15:46:10;1.42;;;0.68;;
71503;SDS011;59323;50.874;7.028;2023-07-28T15:48:35;1.00;;;0.77;;
71503;SDS011;59323;50.874;7.028;2023-07-28T15:51:00;1.80;;;0.93;;
71503;SDS011;59323;50.874;7.028;2023-07-28T15:53:26;1.93;;;1.03;;
71503;SDS011;59323;50.874;7.028;2023-07-28T15:55:51;1.63;;;1.07;;
71503;SDS011;59323;50.874;7.028;2023-07-28T15:58:16;5.07;;;0.65;;
71503;SDS011;59323;50.874;7.028;2023-07-28T16:00:42;2.23;;;1.17;;
71503;SDS011;59323;50.874;7.028;2023-07-28T16:03:07;0.90;;;0.67;;
71503;SDS011;59323;50.874;7.028;2023-07-28T16:05:33;1.20;;;0.70;;
71503;SDS011;59323;50.874;7.028;2023-07-28T16:08:02;1.70;;;0.82;;
71503;SDS011;59323;50.874;7.028;2023-07-28T16:10:27;1.23;;;0.70;;